sensor_id;sensor_type;location;lat;lon;timestamp;pressure;altitude;pressure_sealevel;temperature;humidity
67740;BME280;54536;50.090;14.420;2023-03-21T00:01:58;99559.88;;;13.67;53.74
67740;BME280;54536;50.090;14.420;2023-03-21T00:04:25;99559.44;;;13.54;53.72
67740;BME280;54536;50.090;14.420;2023-03-21T00:06:52;99550.56;;;13.63;53.83
67740;BME280;54536;50.090;14.420;2023-03-21T00:09:20;99543.28;;;13.57;53.72
67740;BME280;54536;50.090;14.420;2023-03-21T00:11:46;99542.94;;;13.60;53.66
67740;BME280;54536;50.090;14.420;2023-03-21T00:14:15;99543.72;;;13.70;53.66
67740;BME280;54536;50.090;14.420;2023-03-21T00:16:43;99536.25;;;13.48;54.61
67740;BME280;54536;50.090;14.420;2023-03-21T00:19:10;99531.94;;;13.47;54.01
67740;BME280;54536;50.090;14.420;2023-03-21T00:21:37;99544.00;;;13.49;54.13
67740;BME280;54536;50.090;14.420;2023-03-21T00:24:05;99535.94;;;13.51;53.74
67740;BME280;54536;50.090;14.420;2023-03-21T00:26:32;99530.81;;;13.49;54.14
67740;BME280;54536;50.090;14.420;2023-03-21T00:28:59;99531.88;;;13.39;54.27
67740;BME280;54536;50.090;14.420;2023-03-21T00:31:25;99529.34;;;13.37;54.17
67740;BME280;54536;50.090;14.420;2023-03-21T00:33:51;99528.59;;;13.27;54.32
67740;BME280;54536;50.090;14.420;2023-03-21T00:36:17;99524.16;;;13.27;54.73
67740;BME280;54536;50.090;14.420;2023-03-21T00:38:43;99516.59;;;13.50;53.62
67740;BME280;54536;50.090;14.420;2023-03-21T00:41:11;99514.34;;;13.55;53.95
67740;BME280;54536;50.090;14.420;2023-03-21T00:43:39;99502.66;;;13.40;54.08
67740;BME280;54536;50.090;14.420;2023-03-21T00:46:06;99503.72;;;13.29;54.60
67740;BME280;54536;50.090;14.420;2023-03-21T00:48:33;99508.44;;;13.44;53.79
67740;BME280;54536;50.090;14.420;2023-03-21T00:50:59;99504.75;;;13.37;54.36
67740;BME280;54536;50.090;14.420;2023-03-21T00:53:26;99502.44;;;13.33;53.94
67740;BME280;54536;50.090;14.420;2023-03-21T00:55:53;99502.44;;;13.33;54.61
67740;BME280;54536;50.090;14.420;2023-03-21T00:58:19;99511.56;;;13.39;54.70
67740;BME280;54536;50.090;14.420;2023-03-21T01:00:45;99512.16;;;13.33;54.78
67740;BME280;54536;50.090;14.420;2023-03-21T01:03:14;99509.38;;;13.34;54.78
67740;BME280;54536;50.090;14.420;2023-03-21T01:05:43;99507.97;;;13.12;54.92
67740;BME280;54536;50.090;14.420;2023-03-21T01:08:28;99508.47;;;13.26;54.31
67740;BME280;54536;50.090;14.420;2023-03-21T01:10:55;99506.56;;;13.18;55.05
67740;BME280;54536;50.090;14.420;2023-03-21T01:13:23;99506.00;;;13.24;54.81
67740;BME280;54536;50.090;14.420;2023-03-21T01:15:53;99509.44;;;13.43;53.84
67740;BME280;54536;50.090;14.420;2023-03-21T01:18:23;99510.00;;;13.28;54.75
67740;BME280;54536;50.090;14.420;2023-03-21T01:20:53;99504.88;;;13.17;54.74
67740;BME280;54536;50.090;14.420;2023-03-21T01:23:20;99501.13;;;13.20;54.71
67740;BME280;54536;50.090;14.420;2023-03-21T01:25:47;99500.00;;;13.22;54.30
67740;BME280;54536;50.090;14.420;2023-03-21T01:28:14;99506.69;;;13.17;54.60
67740;BME280;54536;50.090;14.420;2023-03-21T01:30:48;99509.25;;;13.08;55.18
67740;BME280;54536;50.090;14.420;2023-03-21T01:33:17;99510.09;;;13.09;55.33
67740;BME280;54536;50.090;14.420;2023-03-21T01:35:44;99503.81;;;13.10;54.83
67740;BME280;54536;50.090;14.420;2023-03-21T01:38:12;99504.06;;;13.17;54.74
67740;BME280;54536;50.090;14.420;2023-03-21T01:40:39;99506.09;;;13.23;54.81
67740;BME280;54536;50.090;14.420;2023-03-21T01:48:55;99500.25;;;13.01;55.09
67740;BME280;54536;50.090;14.420;2023-03-21T01:51:25;99490.78;;;13.08;55.39
67740;BME280;54536;50.090;14.420;2023-03-21T01:53:52;99497.72;;;12.92;54.91
67740;BME280;54536;50.090;14.420;2023-03-21T01:56:28;99496.19;;;13.07;55.22
67740;BME280;54536;50.090;14.420;2023-03-21T02:01:48;99494.97;;;13.01;54.86
67740;BME280;54536;50.090;14.420;2023-03-21T02:04:18;99491.84;;;13.16;54.58
67740;BME280;54536;50.090;14.420;2023-03-21T02:07:03;99485.13;;;13.03;54.78
67740;BME280;54536;50.090;14.420;2023-03-21T02:09:35;99488.41;;;12.87;55.35
67740;BME280;54536;50.090;14.420;2023-03-21T02:12:03;99489.09;;;12.89;55.83
67740;BME280;54536;50.090;14.420;2023-03-21T02:14:33;99489.94;;;12.90;55.11
67740;BME280;54536;50.090;14.420;2023-03-21T02:19:57;99492.28;;;12.93;55.19
67740;BME280;54536;50.090;14.420;2023-03-21T02:28:32;99486.56;;;12.70;56.10
67740;BME280;54536;50.090;14.420;2023-03-21T02:34:12;99484.63;;;12.72;55.63
67740;BME280;54536;50.090;14.420;2023-03-21T02:36:55;99495.78;;;12.84;55.44
67740;BME280;54536;50.090;14.420;2023-03-21T02:39:37;99491.44;;;12.93;55.26
67740;BME280;54536;50.090;14.420;2023-03-21T02:42:12;99486.47;;;12.89;55.76
67740;BME280;54536;50.090;14.420;2023-03-21T02:44:48;99494.69;;;12.86;55.36
67740;BME280;54536;50.090;14.420;2023-03-21T02:49:55;99500.41;;;12.82;55.27
67740;BME280;54536;50.090;14.420;2023-03-21T02:52:28;99492.84;;;12.69;55.69
67740;BME280;54536;50.090;14.420;2023-03-21T02:54:59;99495.47;;;12.69;56.17
67740;BME280;54536;50.090;14.420;2023-03-21T02:57:31;99490.44;;;12.76;55.80
67740;BME280;54536;50.090;14.420;2023-03-21T02:59:59;99494.50;;;12.70;55.32
67740;BME280;54536;50.090;14.420;2023-03-21T03:02:27;99490.75;;;12.73;56.01
67740;BME280;54536;50.090;14.420;2023-03-21T03:04:54;99501.34;;;12.63;55.66
67740;BME280;54536;50.090;14.420;2023-03-21T03:07:45;99497.06;;;12.52;55.88
67740;BME280;54536;50.090;14.420;2023-03-21T03:13:36;99497.94;;;12.53;55.96
67740;BME280;54536;50.090;14.420;2023-03-21T03:18:59;99493.91;;;12.49;56.31
67740;BME280;54536;50.090;14.420;2023-03-21T03:21:40;99504.44;;;12.49;55.95
67740;BME280;54536;50.090;14.420;2023-03-21T03:24:25;99501.91;;;12.57;56.30
67740;BME280;54536;50.090;14.420;2023-03-21T03:27:06;99499.41;;;12.55;55.90
67740;BME280;54536;50.090;14.420;2023-03-21T03:29:39;99504.19;;;12.42;56.39
67740;BME280;54536;50.090;14.420;2023-03-21T03:32:10;99494.38;;;12.34;56.51
67740;BME280;54536;50.090;14.420;2023-03-21T03:34:43;99492.72;;;12.61;56.11
67740;BME280;54536;50.090;14.420;2023-03-21T03:37:20;99492.13;;;12.49;56.25
67740;BME280;54536;50.090;14.420;2023-03-21T03:42:53;99498.34;;;12.48;55.93
67740;BME280;54536;50.090;14.420;2023-03-21T03:45:29;99490.91;;;12.61;55.81
67740;BME280;54536;50.090;14.420;2023-03-21T03:48:31;99493.59;;;12.52;56.14
67740;BME280;54536;50.090;14.420;2023-03-21T03:50:53;99495.91;;;12.37;56.09
67740;BME280;54536;50.090;14.420;2023-03-21T03:53:50;99491.50;;;12.28;56.89
67740;BME280;54536;50.090;14.420;2023-03-21T03:56:19;99487.59;;;12.32;56.39
67740;BME280;54536;50.090;14.420;2023-03-21T03:58:46;99479.00;;;12.30;57.15
67740;BME280;54536;50.090;14.420;2023-03-21T04:01:12;99481.72;;;12.38;57.02
67740;BME280;54536;50.090;14.420;2023-03-21T04:03:42;99485.59;;;12.44;56.09
67740;BME280;54536;50.090;14.420;2023-03-21T04:06:10;99491.28;;;12.39;56.14
67740;BME280;54536;50.090;14.420;2023-03-21T04:08:36;99490.41;;;12.21;56.68
67740;BME280;54536;50.090;14.420;2023-03-21T04:11:03;99491.00;;;12.14;57.27
67740;BME280;54536;50.090;14.420;2023-03-21T04:13:30;99487.84;;;12.38;56.13
67740;BME280;54536;50.090;14.420;2023-03-21T04:15:56;99488.13;;;12.35;56.26
67740;BME280;54536;50.090;14.420;2023-03-21T04:18:22;99493.06;;;12.48;56.03
67740;BME280;54536;50.090;14.420;2023-03-21T04:20:49;99491.88;;;12.43;56.51
67740;BME280;54536;50.090;14.420;2023-03-21T04:23:17;99488.00;;;12.37;56.38
67740;BME280;54536;50.090;14.420;2023-03-21T04:25:44;99480.41;;;12.24;57.24
67740;BME280;54536;50.090;14.420;2023-03-21T04:28:11;99486.06;;;12.29;57.43
67740;BME280;54536;50.090;14.420;2023-03-21T04:30:37;99489.16;;;12.25;57.28
67740;BME280;54536;50.090;14.420;2023-03-21T04:33:04;99489.22;;;12.05;57.42
67740;BME280;54536;50.090;14.420;2023-03-21T04:35:30;99490.38;;;12.30;56.95
67740;BME280;54536;50.090;14.420;2023-03-21T04:37:56;99494.22;;;12.36;56.54
67740;BME280;54536;50.090;14.420;2023-03-21T04:40:22;99493.41;;;12.35;56.76
67740;BME280;54536;50.090;14.420;2023-03-21T04:42:50;99496.28;;;12.42;56.63
67740;BME280;54536;50.090;14.420;2023-03-21T04:45:16;99496.72;;;12.37;56.43
67740;BME280;54536;50.090;14.420;2023-03-21T04:47:42;99497.19;;;12.33;56.62
67740;BME280;54536;50.090;14.420;2023-03-21T04:50:10;99492.50;;;12.17;57.25
67740;BME280;54536;50.090;14.420;2023-03-21T04:52:37;99502.13;;;12.36;56.55
67740;BME280;54536;50.090;14.420;2023-03-21T04:55:04;99500.47;;;12.35;56.75
67740;BME280;54536;50.090;14.420;2023-03-21T04:57:37;99506.19;;;12.30;56.36
67740;BME280;54536;50.090;14.420;2023-03-21T05:00:06;99500.84;;;12.12;57.38
67740;BME280;54536;50.090;14.420;2023-03-21T05:02:37;99500.28;;;12.09;57.06
67740;BME280;54536;50.090;14.420;2023-03-21T05:05:04;99502.78;;;12.20;56.89
67740;BME280;54536;50.090;14.420;2023-03-21T05:07:30;99500.97;;;12.21;56.97
67740;BME280;54536;50.090;14.420;2023-03-21T05:09:57;99499.00;;;12.23;56.82
67740;BME280;54536;50.090;14.420;2023-03-21T05:12:24;99497.06;;;12.25;57.13
67740;BME280;54536;50.090;14.420;2023-03-21T05:14:50;99496.22;;;12.24;56.69
67740;BME280;54536;50.090;14.420;2023-03-21T05:17:16;99499.44;;;12.18;56.68
67740;BME280;54536;50.090;14.420;2023-03-21T05:19:48;99495.25;;;12.25;56.36
67740;BME280;54536;50.090;14.420;2023-03-21T05:22:15;99501.53;;;12.14;56.87
67740;BME280;54536;50.090;14.420;2023-03-21T05:24:45;99494.75;;;12.02;57.55
67740;BME280;54536;50.090;14.420;2023-03-21T05:27:16;99493.13;;;12.01;57.66
67740;BME280;54536;50.090;14.420;2023-03-21T05:30:09;99497.81;;;12.07;56.84
67740;BME280;54536;50.090;14.420;2023-03-21T05:32:35;99500.16;;;12.10;56.73
67740;BME280;54536;50.090;14.420;2023-03-21T05:35:03;99501.41;;;12.06;56.99
67740;BME280;54536;50.090;14.420;2023-03-21T05:37:29;99506.97;;;12.03;57.64
67740;BME280;54536;50.090;14.420;2023-03-21T05:39:55;99505.41;;;12.20;56.27
67740;BME280;54536;50.090;14.420;2023-03-21T05:42:22;99500.16;;;12.10;56.81
67740;BME280;54536;50.090;14.420;2023-03-21T05:44:49;99498.78;;;12.06;56.74
67740;BME280;54536;50.090;14.420;2023-03-21T05:47:16;99506.69;;;12.06;57.01
67740;BME280;54536;50.090;14.420;2023-03-21T05:49:44;99502.78;;;12.20;56.04
67740;BME280;54536;50.090;14.420;2023-03-21T05:52:11;99505.81;;;12.15;56.07
67740;BME280;54536;50.090;14.420;2023-03-21T05:54:37;99511.66;;;12.09;56.50
67740;BME280;54536;50.090;14.420;2023-03-21T05:57:04;99511.56;;;12.01;56.20
67740;BME280;54536;50.090;14.420;2023-03-21T05:59:30;99509.16;;;12.17;55.89
67740;BME280;54536;50.090;14.420;2023-03-21T06:01:57;99518.19;;;12.05;55.96
67740;BME280;54536;50.090;14.420;2023-03-21T06:04:24;99510.69;;;12.20;55.86
67740;BME280;54536;50.090;14.420;2023-03-21T06:06:50;99507.47;;;12.26;55.73
67740;BME280;54536;50.090;14.420;2023-03-21T06:09:20;99512.47;;;12.19;55.31
67740;BME280;54536;50.090;14.420;2023-03-21T06:11:49;99514.28;;;12.19;55.44
67740;BME280;54536;50.090;14.420;2023-03-21T06:14:18;99516.91;;;12.19;55.50
67740;BME280;54536;50.090;14.420;2023-03-21T06:16:44;99517.97;;;12.36;55.32
67740;BME280;54536;50.090;14.420;2023-03-21T06:19:11;99522.69;;;12.32;55.34
67740;BME280;54536;50.090;14.420;2023-03-21T06:21:37;99520.59;;;12.36;54.96
67740;BME280;54536;50.090;14.420;2023-03-21T06:24:04;99525.88;;;12.36;55.53
67740;BME280;54536;50.090;14.420;2023-03-21T06:26:30;99525.47;;;12.31;55.47
67740;BME280;54536;50.090;14.420;2023-03-21T06:28:57;99522.50;;;12.53;54.63
67740;BME280;54536;50.090;14.420;2023-03-21T06:31:23;99525.59;;;12.39;55.10
67740;BME280;54536;50.090;14.420;2023-03-21T06:33:52;99520.34;;;12.29;55.37
67740;BME280;54536;50.090;14.420;2023-03-21T06:36:18;99520.47;;;12.37;54.23
67740;BME280;54536;50.090;14.420;2023-03-21T06:38:45;99525.59;;;12.39;54.71
67740;BME280;54536;50.090;14.420;2023-03-21T06:41:11;99524.72;;;12.48;54.20
67740;BME280;54536;50.090;14.420;2023-03-21T06:43:38;99530.13;;;12.56;54.15
67740;BME280;54536;50.090;14.420;2023-03-21T06:46:04;99536.53;;;12.44;54.61
67740;BME280;54536;50.090;14.420;2023-03-21T06:48:31;99536.78;;;12.51;53.67
67740;BME280;54536;50.090;14.420;2023-03-21T06:50:57;99535.72;;;12.71;53.23
67740;BME280;54536;50.090;14.420;2023-03-21T06:53:25;99536.75;;;12.60;54.10
67740;BME280;54536;50.090;14.420;2023-03-21T06:55:55;99538.97;;;12.55;53.80
67740;BME280;54536;50.090;14.420;2023-03-21T06:58:22;99543.16;;;12.85;53.50
67740;BME280;54536;50.090;14.420;2023-03-21T07:00:48;99546.16;;;12.73;53.67
67740;BME280;54536;50.090;14.420;2023-03-21T07:03:15;99532.97;;;12.91;52.65
67740;BME280;54536;50.090;14.420;2023-03-21T07:05:42;99543.06;;;12.77;53.17
67740;BME280;54536;50.090;14.420;2023-03-21T07:08:09;99551.03;;;12.95;53.29
67740;BME280;54536;50.090;14.420;2023-03-21T07:10:44;99541.06;;;12.89;53.37
67740;BME280;54536;50.090;14.420;2023-03-21T07:13:13;99545.75;;;12.95;53.53
67740;BME280;54536;50.090;14.420;2023-03-21T07:15:40;99543.19;;;13.03;52.63
67740;BME280;54536;50.090;14.420;2023-03-21T07:18:08;99547.94;;;13.00;52.88
67740;BME280;54536;50.090;14.420;2023-03-21T07:20:35;99541.84;;;12.99;53.23
67740;BME280;54536;50.090;14.420;2023-03-21T07:23:03;99545.31;;;13.18;52.26
67740;BME280;54536;50.090;14.420;2023-03-21T07:25:29;99536.22;;;13.30;51.80
67740;BME280;54536;50.090;14.420;2023-03-21T07:27:56;99535.63;;;13.36;51.63
67740;BME280;54536;50.090;14.420;2023-03-21T07:30:22;99544.69;;;13.33;51.47
67740;BME280;54536;50.090;14.420;2023-03-21T07:32:48;99541.97;;;13.43;51.27
67740;BME280;54536;50.090;14.420;2023-03-21T07:35:16;99534.34;;;13.40;51.13
67740;BME280;54536;50.090;14.420;2023-03-21T07:37:43;99539.13;;;13.54;51.13
67740;BME280;54536;50.090;14.420;2023-03-21T07:40:09;99538.94;;;13.56;51.33
67740;BME280;54536;50.090;14.420;2023-03-21T07:42:39;99535.41;;;13.65;50.53
67740;BME280;54536;50.090;14.420;2023-03-21T07:45:07;99537.97;;;13.75;50.03
67740;BME280;54536;50.090;14.420;2023-03-21T07:47:34;99539.69;;;13.66;49.82
67740;BME280;54536;50.090;14.420;2023-03-21T07:50:02;99531.53;;;13.77;49.88
67740;BME280;54536;50.090;14.420;2023-03-21T07:52:29;99530.72;;;13.77;49.20
67740;BME280;54536;50.090;14.420;2023-03-21T07:54:55;99540.28;;;13.78;49.66
67740;BME280;54536;50.090;14.420;2023-03-21T07:57:22;99531.59;;;13.86;49.63
67740;BME280;54536;50.090;14.420;2023-03-21T07:59:48;99540.47;;;14.02;49.05
67740;BME280;54536;50.090;14.420;2023-03-21T08:02:16;99532.44;;;14.12;49.44
67740;BME280;54536;50.090;14.420;2023-03-21T08:04:43;99533.72;;;14.08;49.66
67740;BME280;54536;50.090;14.420;2023-03-21T08:07:10;99538.38;;;14.06;48.55
67740;BME280;54536;50.090;14.420;2023-03-21T08:09:36;99542.16;;;14.03;49.38
67740;BME280;54536;50.090;14.420;2023-03-21T08:12:04;99542.38;;;14.18;49.28
67740;BME280;54536;50.090;14.420;2023-03-21T08:14:30;99544.31;;;14.08;48.44
67740;BME280;54536;50.090;14.420;2023-03-21T08:16:57;99535.97;;;13.95;49.01
67740;BME280;54536;50.090;14.420;2023-03-21T08:19:23;99539.13;;;13.98;49.08
67740;BME280;54536;50.090;14.420;2023-03-21T08:21:49;99537.38;;;14.07;49.19
67740;BME280;54536;50.090;14.420;2023-03-21T08:24:16;99542.69;;;14.15;48.88
67740;BME280;54536;50.090;14.420;2023-03-21T08:26:43;99537.56;;;14.14;49.03
67740;BME280;54536;50.090;14.420;2023-03-21T08:29:11;99531.41;;;14.05;48.76
67740;BME280;54536;50.090;14.420;2023-03-21T08:31:39;99537.81;;;14.28;47.80
67740;BME280;54536;50.090;14.420;2023-03-21T08:34:06;99528.44;;;14.34;48.54
67740;BME280;54536;50.090;14.420;2023-03-21T08:36:35;99526.06;;;14.23;47.84
67740;BME280;54536;50.090;14.420;2023-03-21T08:39:03;99526.78;;;14.33;47.98
67740;BME280;54536;50.090;14.420;2023-03-21T08:41:34;99520.66;;;14.33;47.92
67740;BME280;54536;50.090;14.420;2023-03-21T08:44:01;99529.44;;;14.67;46.75
67740;BME280;54536;50.090;14.420;2023-03-21T08:46:28;99526.78;;;14.59;47.10
67740;BME280;54536;50.090;14.420;2023-03-21T08:48:54;99531.72;;;14.54;47.23
67740;BME280;54536;50.090;14.420;2023-03-21T08:51:21;99529.66;;;14.48;47.22
67740;BME280;54536;50.090;14.420;2023-03-21T08:53:48;99535.13;;;14.81;46.59
67740;BME280;54536;50.090;14.420;2023-03-21T08:56:17;99529.03;;;14.88;46.35
67740;BME280;54536;50.090;14.420;2023-03-21T08:58:43;99524.53;;;14.81;46.51
67740;BME280;54536;50.090;14.420;2023-03-21T09:01:10;99528.59;;;15.01;46.88
67740;BME280;54536;50.090;14.420;2023-03-21T09:03:41;99529.91;;;15.13;45.72
67740;BME280;54536;50.090;14.420;2023-03-21T09:06:09;99524.34;;;15.25;46.00
67740;BME280;54536;50.090;14.420;2023-03-21T09:08:39;99522.31;;;15.27;45.17
67740;BME280;54536;50.090;14.420;2023-03-21T09:11:08;99521.03;;;15.31;44.80
67740;BME280;54536;50.090;14.420;2023-03-21T09:13:35;99521.56;;;15.51;45.26
67740;BME280;54536;50.090;14.420;2023-03-21T09:16:02;99516.75;;;15.54;44.31
67740;BME280;54536;50.090;14.420;2023-03-21T09:18:28;99513.78;;;15.74;44.32
67740;BME280;54536;50.090;14.420;2023-03-21T09:21:13;99516.75;;;15.79;43.88
67740;BME280;54536;50.090;14.420;2023-03-21T09:23:40;99522.72;;;15.64;43.56
67740;BME280;54536;50.090;14.420;2023-03-21T09:26:08;99524.88;;;15.69;44.37
67740;BME280;54536;50.090;14.420;2023-03-21T09:28:35;99525.03;;;15.76;44.80
67740;BME280;54536;50.090;14.420;2023-03-21T09:31:04;99513.94;;;15.88;44.27
67740;BME280;54536;50.090;14.420;2023-03-21T09:33:31;99517.56;;;15.79;44.05
67740;BME280;54536;50.090;14.420;2023-03-21T09:35:58;99518.75;;;15.77;43.99
67740;BME280;54536;50.090;14.420;2023-03-21T09:38:25;99516.25;;;16.00;44.50
67740;BME280;54536;50.090;14.420;2023-03-21T09:41:19;99519.41;;;15.95;43.78
67740;BME280;54536;50.090;14.420;2023-03-21T09:49:49;99508.63;;;15.97;43.33
67740;BME280;54536;50.090;14.420;2023-03-21T09:52:36;99509.31;;;15.90;43.76
67740;BME280;54536;50.090;14.420;2023-03-21T09:55:29;99517.94;;;15.93;44.16
67740;BME280;54536;50.090;14.420;2023-03-21T09:58:01;99512.25;;;16.04;43.35
67740;BME280;54536;50.090;14.420;2023-03-21T10:00:36;99507.44;;;16.07;44.07
67740;BME280;54536;50.090;14.420;2023-03-21T10:03:11;99505.31;;;16.03;43.40
67740;BME280;54536;50.090;14.420;2023-03-21T10:05:42;99498.66;;;16.07;43.57
67740;BME280;54536;50.090;14.420;2023-03-21T10:08:19;99499.81;;;16.04;43.72
67740;BME280;54536;50.090;14.420;2023-03-21T10:10:50;99498.47;;;16.17;44.43
67740;BME280;54536;50.090;14.420;2023-03-21T10:13:23;99496.78;;;16.32;44.14
67740;BME280;54536;50.090;14.420;2023-03-21T10:15:56;99501.47;;;16.61;44.05
67740;BME280;54536;50.090;14.420;2023-03-21T10:18:27;99492.06;;;16.50;42.89
67740;BME280;54536;50.090;14.420;2023-03-21T10:20:54;99486.13;;;16.48;42.83
67740;BME280;54536;50.090;14.420;2023-03-21T10:23:26;99492.88;;;16.51;42.86
67740;BME280;54536;50.090;14.420;2023-03-21T10:25:57;99491.41;;;16.48;43.44
67740;BME280;54536;50.090;14.420;2023-03-21T10:28:31;99486.06;;;16.56;43.26
67740;BME280;54536;50.090;14.420;2023-03-21T10:31:09;99483.81;;;16.37;43.88
67740;BME280;54536;50.090;14.420;2023-03-21T10:33:45;99476.88;;;16.36;43.61
67740;BME280;54536;50.090;14.420;2023-03-21T10:36:32;99475.34;;;16.42;43.61
67740;BME280;54536;50.090;14.420;2023-03-21T10:39:05;99471.00;;;16.49;43.73
67740;BME280;54536;50.090;14.420;2023-03-21T10:41:32;99471.16;;;16.55;42.83
67740;BME280;54536;50.090;14.420;2023-03-21T10:44:11;99462.09;;;16.81;43.08
67740;BME280;54536;50.090;14.420;2023-03-21T10:46:51;99462.16;;;16.56;43.47
67740;BME280;54536;50.090;14.420;2023-03-21T10:49:18;99465.00;;;16.55;42.77
67740;BME280;54536;50.090;14.420;2023-03-21T10:51:51;99465.69;;;16.49;43.48
67740;BME280;54536;50.090;14.420;2023-03-21T10:54:23;99467.81;;;16.53;42.85
67740;BME280;54536;50.090;14.420;2023-03-21T10:57:07;99468.31;;;16.57;43.68
67740;BME280;54536;50.090;14.420;2023-03-21T10:59:43;99459.78;;;16.78;42.52
67740;BME280;54536;50.090;14.420;2023-03-21T11:02:20;99463.25;;;16.70;43.19
67740;BME280;54536;50.090;14.420;2023-03-21T11:04:51;99470.25;;;16.71;43.10
67740;BME280;54536;50.090;14.420;2023-03-21T11:07:17;99462.25;;;16.79;42.76
67740;BME280;54536;50.090;14.420;2023-03-21T11:12:27;99454.66;;;16.99;42.70
67740;BME280;54536;50.090;14.420;2023-03-21T11:14:54;99453.66;;;17.46;41.53
67740;BME280;54536;50.090;14.420;2023-03-21T11:17:23;99449.97;;;17.47;41.64
67740;BME280;54536;50.090;14.420;2023-03-21T11:20:15;99444.00;;;17.45;41.20
67740;BME280;54536;50.090;14.420;2023-03-21T11:22:45;99449.88;;;17.78;40.66
67740;BME280;54536;50.090;14.420;2023-03-21T11:25:38;99443.84;;;17.85;41.38
67740;BME280;54536;50.090;14.420;2023-03-21T11:28:18;99433.16;;;17.70;41.33
67740;BME280;54536;50.090;14.420;2023-03-21T11:30:57;99436.25;;;17.59;41.61
67740;BME280;54536;50.090;14.420;2023-03-21T11:33:33;99434.84;;;17.48;41.72
67740;BME280;54536;50.090;14.420;2023-03-21T11:36:10;99433.78;;;17.72;41.79
67740;BME280;54536;50.090;14.420;2023-03-21T11:38:56;99420.34;;;17.88;40.51
67740;BME280;54536;50.090;14.420;2023-03-21T11:41:31;99419.16;;;18.35;40.27
67740;BME280;54536;50.090;14.420;2023-03-21T11:43:59;99426.38;;;18.56;39.64
67740;BME280;54536;50.090;14.420;2023-03-21T11:46:31;99416.09;;;18.53;39.59
67740;BME280;54536;50.090;14.420;2023-03-21T11:48:58;99401.16;;;18.37;40.06
67740;BME280;54536;50.090;14.420;2023-03-21T11:51:40;99405.03;;;18.20;40.34
67740;BME280;54536;50.090;14.420;2023-03-21T11:54:26;99400.94;;;18.02;40.44
67740;BME280;54536;50.090;14.420;2023-03-21T11:59:39;99396.50;;;18.10;40.59
67740;BME280;54536;50.090;14.420;2023-03-21T12:05:09;99385.38;;;18.36;39.61
67740;BME280;54536;50.090;14.420;2023-03-21T12:07:54;99379.69;;;18.60;39.81
67740;BME280;54536;50.090;14.420;2023-03-21T12:15:41;99378.47;;;18.41;40.12
67740;BME280;54536;50.090;14.420;2023-03-21T12:21:38;99366.25;;;19.05;38.90
67740;BME280;54536;50.090;14.420;2023-03-21T12:37:36;99346.56;;;19.06;38.49
67740;BME280;54536;50.090;14.420;2023-03-21T12:45:49;99340.22;;;18.85;39.42
67740;BME280;54536;50.090;14.420;2023-03-21T12:48:29;99336.78;;;19.13;38.38
67740;BME280;54536;50.090;14.420;2023-03-21T12:51:02;99333.50;;;18.68;39.59
67740;BME280;54536;50.090;14.420;2023-03-21T12:56:10;99318.22;;;19.26;38.14
67740;BME280;54536;50.090;14.420;2023-03-21T12:58:51;99305.97;;;19.38;38.27
67740;BME280;54536;50.090;14.420;2023-03-21T13:01:21;99299.38;;;20.98;34.81
67740;BME280;54536;50.090;14.420;2023-03-21T13:04:02;99298.59;;;22.41;32.87
67740;BME280;54536;50.090;14.420;2023-03-21T13:06:31;99287.22;;;23.46;30.98
67740;BME280;54536;50.090;14.420;2023-03-21T13:17:47;99272.28;;;24.23;28.88
67740;BME280;54536;50.090;14.420;2023-03-21T13:20:25;99267.22;;;24.45;28.47
67740;BME280;54536;50.090;14.420;2023-03-21T13:22:54;99266.66;;;23.95;29.25
67740;BME280;54536;50.090;14.420;2023-03-21T13:25:24;99265.66;;;23.16;30.67
67740;BME280;54536;50.090;14.420;2023-03-21T13:27:54;99273.75;;;22.52;31.86
67740;BME280;54536;50.090;14.420;2023-03-21T13:30:26;99273.88;;;21.87;32.95
67740;BME280;54536;50.090;14.420;2023-03-21T13:33:31;99270.34;;;21.42;33.74
67740;BME280;54536;50.090;14.420;2023-03-21T13:36:04;99267.28;;;21.05;34.45
67740;BME280;54536;50.090;14.420;2023-03-21T13:38:35;99264.84;;;20.70;35.72
67740;BME280;54536;50.090;14.420;2023-03-21T13:41:12;99264.59;;;20.52;35.60
67740;BME280;54536;50.090;14.420;2023-03-21T13:43:43;99258.59;;;20.37;36.04
67740;BME280;54536;50.090;14.420;2023-03-21T14:02:30;99258.72;;;19.95;37.54
67740;BME280;54536;50.090;14.420;2023-03-21T14:05:20;99256.00;;;19.88;37.30
67740;BME280;54536;50.090;14.420;2023-03-21T14:07:55;99253.75;;;19.85;37.68
67740;BME280;54536;50.090;14.420;2023-03-21T14:10:36;99248.63;;;19.91;37.35
67740;BME280;54536;50.090;14.420;2023-03-21T14:13:10;99249.44;;;19.91;37.67
67740;BME280;54536;50.090;14.420;2023-03-21T14:15:48;99242.47;;;19.90;37.12
67740;BME280;54536;50.090;14.420;2023-03-21T14:18:19;99253.31;;;19.82;37.84
67740;BME280;54536;50.090;14.420;2023-03-21T14:20:52;99251.25;;;19.84;37.84
67740;BME280;54536;50.090;14.420;2023-03-21T14:23:19;99243.59;;;19.68;37.95
67740;BME280;54536;50.090;14.420;2023-03-21T14:25:47;99244.03;;;19.71;37.52
67740;BME280;54536;50.090;14.420;2023-03-21T14:28:23;99241.63;;;19.48;37.54
67740;BME280;54536;50.090;14.420;2023-03-21T14:30:55;99235.25;;;19.42;37.70
67740;BME280;54536;50.090;14.420;2023-03-21T14:33:38;99231.16;;;19.40;37.87
67740;BME280;54536;50.090;14.420;2023-03-21T14:36:13;99231.56;;;19.44;37.68
67740;BME280;54536;50.090;14.420;2023-03-21T14:38:40;99230.53;;;19.45;38.22
67740;BME280;54536;50.090;14.420;2023-03-21T14:41:25;99223.13;;;19.40;38.02
67740;BME280;54536;50.090;14.420;2023-03-21T14:46:36;99228.09;;;19.43;38.43
67740;BME280;54536;50.090;14.420;2023-03-21T14:49:16;99223.56;;;19.44;38.58
67740;BME280;54536;50.090;14.420;2023-03-21T14:51:43;99225.41;;;19.43;38.33
67740;BME280;54536;50.090;14.420;2023-03-21T14:54:15;99219.69;;;19.46;38.43